Anthony, West Virginia
Current Conditions -  °F | °C
As of 2:35 AM on Tuesday 21 Oct 2014 (Local Time) from KLWB Reporting Station
Haze Haze  
Wind Chill: 47°   Ceiling: 2600
Heat Index: 47°   Visibility: 1.2mi
Dew Point: 46°   Wind: 0mph
Humidity: 93%   Direction: NA
Pressure: 29.94"   Gusts: NA
Location:  38.0307°N, 80.4756°W
Report Text: KLWB 210635Z AUTO 00000KT 1 1/4SM BR BKN026 09/08 A2994 RMK AO2 VIS 3/4V5 T00850075
Loading
Personal Weather Stations






























Interactive Weather Map
Tropical Storm Tracking
New forecast layout! Learn more

10-Day Weather Forecast

Advertisements
Track Severe Weather on mobile